createdAt,value
2023-05-09T00:00:53.656Z,14.40
2023-05-09T00:03:21.170Z,14.40
2023-05-09T00:05:48.133Z,14.40
2023-05-09T00:08:15.233Z,14.40
2023-05-09T00:10:42.078Z,14.40
2023-05-09T00:13:09.363Z,14.30
2023-05-09T00:15:35.942Z,14.30
2023-05-09T00:18:02.644Z,14.30
2023-05-09T00:20:29.468Z,14.30
2023-05-09T00:22:56.494Z,14.30
2023-05-09T00:25:23.272Z,14.30
2023-05-09T00:27:49.927Z,14.30
2023-05-09T00:30:16.538Z,14.30
2023-05-09T00:32:43.247Z,14.20
2023-05-09T00:35:10.252Z,14.20
2023-05-09T00:37:37.060Z,14.20
2023-05-09T00:40:04.491Z,14.20
2023-05-09T00:42:31.169Z,14.20
2023-05-09T00:44:57.800Z,14.20
2023-05-09T00:47:24.506Z,14.20
2023-05-09T00:49:51.209Z,14.20
2023-05-09T00:52:21.477Z,14.20
2023-05-09T00:54:48.340Z,14.10
2023-05-09T00:57:15.214Z,14.10
2023-05-09T00:59:41.976Z,14.20
2023-05-09T01:02:08.676Z,14.20
2023-05-09T01:04:35.368Z,14.20
2023-05-09T01:07:20.812Z,14.10
2023-05-09T01:09:58.882Z,14.20
2023-05-09T01:12:25.529Z,14.10
2023-05-09T01:14:55.745Z,14.10
2023-05-09T01:17:27.225Z,14.10
2023-05-09T01:19:56.733Z,14.10
2023-05-09T01:22:25.391Z,14.10
2023-05-09T01:25:07.436Z,14.10
2023-05-09T01:27:46.285Z,14.10
2023-05-09T01:30:14.037Z,14.10
2023-05-09T01:32:40.830Z,14.10
2023-05-09T01:35:08.114Z,14.10
2023-05-09T01:37:36.308Z,14.10
2023-05-09T01:40:13.886Z,14.10
2023-05-09T01:42:44.712Z,14.10
2023-05-09T01:45:11.498Z,14.10
2023-05-09T01:47:38.287Z,14.10
2023-05-09T01:50:05.507Z,14.10
2023-05-09T01:52:32.169Z,14.00
2023-05-09T01:55:00.204Z,14.00
2023-05-09T01:57:27.221Z,14.00
2023-05-09T01:59:53.915Z,14.00
2023-05-09T02:02:20.646Z,14.10
2023-05-09T02:04:47.309Z,14.00
2023-05-09T02:07:13.923Z,14.10
2023-05-09T02:09:40.748Z,14.00
2023-05-09T02:12:07.369Z,14.10
2023-05-09T02:14:34.007Z,14.00
2023-05-09T02:17:06.081Z,14.00
2023-05-09T02:19:36.064Z,14.00
2023-05-09T02:22:02.739Z,13.90
2023-05-09T02:24:29.427Z,14.00
2023-05-09T02:26:56.549Z,14.00
2023-05-09T02:29:23.554Z,14.00
2023-05-09T02:31:50.198Z,13.90
2023-05-09T02:34:16.910Z,13.90
2023-05-09T02:36:43.672Z,13.90
2023-05-09T02:39:11.388Z,13.90
2023-05-09T02:41:38.190Z,13.90
2023-05-09T02:44:05.164Z,13.90
2023-05-09T02:46:31.975Z,13.80
2023-05-09T02:48:59.034Z,13.90
2023-05-09T02:51:25.663Z,13.80
2023-05-09T02:53:52.324Z,13.80
2023-05-09T02:56:19.083Z,13.90
2023-05-09T02:58:51.028Z,13.90
2023-05-09T03:01:18.391Z,13.90
2023-05-09T03:03:46.344Z,13.80
2023-05-09T03:06:14.372Z,13.80
2023-05-09T03:08:40.998Z,13.80
2023-05-09T03:11:07.692Z,13.80
2023-05-09T03:13:34.358Z,13.80
2023-05-09T03:16:01.200Z,13.80
2023-05-09T03:18:27.924Z,13.90
2023-05-09T03:20:54.770Z,13.90
2023-05-09T03:23:21.385Z,13.80
2023-05-09T03:25:48.198Z,13.80
2023-05-09T03:28:14.833Z,13.80
2023-05-09T03:30:41.474Z,13.80
2023-05-09T03:33:08.152Z,13.80
2023-05-09T03:35:34.773Z,13.80
2023-05-09T03:38:01.843Z,13.70
2023-05-09T03:40:28.507Z,13.70
2023-05-09T03:42:55.100Z,13.80
2023-05-09T03:45:22.299Z,13.70
2023-05-09T03:47:49.134Z,13.70
2023-05-09T03:50:15.866Z,13.70
2023-05-09T03:52:42.529Z,13.70
2023-05-09T03:55:09.459Z,13.70
2023-05-09T03:57:36.225Z,13.70
2023-05-09T04:00:04.984Z,13.70
2023-05-09T04:02:33.112Z,13.60
2023-05-09T04:05:00.437Z,13.60
2023-05-09T04:07:28.419Z,13.60
2023-05-09T04:09:56.034Z,13.70
2023-05-09T04:12:22.664Z,13.70
2023-05-09T04:14:49.276Z,13.70
2023-05-09T04:17:15.934Z,13.70
2023-05-09T04:19:42.535Z,13.70
2023-05-09T04:22:09.127Z,13.70
2023-05-09T04:24:35.960Z,13.70
2023-05-09T04:27:02.610Z,13.60
2023-05-09T04:29:29.272Z,13.70
2023-05-09T04:31:56.226Z,13.60
2023-05-09T04:34:22.965Z,13.60
2023-05-09T04:36:49.823Z,13.60
2023-05-09T04:39:16.438Z,13.60
2023-05-09T04:41:44.570Z,13.60
2023-05-09T04:44:11.563Z,13.60
2023-05-09T04:46:38.310Z,13.60
2023-05-09T04:49:04.996Z,13.60
2023-05-09T04:51:31.752Z,13.60
2023-05-09T04:53:58.355Z,13.60
2023-05-09T04:56:24.942Z,13.60
2023-05-09T04:58:52.763Z,13.50
2023-05-09T05:01:19.479Z,13.50
2023-05-09T05:03:46.162Z,13.50
2023-05-09T05:06:12.790Z,13.50
2023-05-09T05:08:39.511Z,13.50
2023-05-09T05:11:06.206Z,13.50
2023-05-09T05:13:32.896Z,13.50
2023-05-09T05:15:59.600Z,13.50
2023-05-09T05:18:26.499Z,13.50
2023-05-09T05:20:53.202Z,13.50
2023-05-09T05:23:19.824Z,13.50
2023-05-09T05:25:46.427Z,13.50
2023-05-09T05:28:13.068Z,13.60
2023-05-09T05:30:40.467Z,13.60
2023-05-09T05:33:07.222Z,13.60
2023-05-09T05:35:33.905Z,13.60
2023-05-09T05:38:01.133Z,13.60
2023-05-09T05:40:28.024Z,13.60
2023-05-09T05:42:54.741Z,13.60
2023-05-09T05:45:21.978Z,13.70
2023-05-09T05:47:48.869Z,13.70
2023-05-09T05:50:16.150Z,13.70
2023-05-09T05:52:43.148Z,13.70
2023-05-09T05:55:09.944Z,13.70
2023-05-09T05:57:37.765Z,13.70
2023-05-09T06:00:07.731Z,13.80
2023-05-09T06:02:34.483Z,13.90
2023-05-09T06:05:01.428Z,13.90
2023-05-09T06:07:28.157Z,14.00
2023-05-09T06:09:54.782Z,14.00
2023-05-09T06:12:21.418Z,14.00
2023-05-09T06:14:48.329Z,14.10
2023-05-09T06:17:15.049Z,14.10
2023-05-09T06:19:41.729Z,14.10
2023-05-09T06:22:08.522Z,14.10
2023-05-09T06:24:36.493Z,14.10
2023-05-09T06:27:03.900Z,14.10
2023-05-09T06:29:30.669Z,14.10
2023-05-09T06:31:57.422Z,14.10
2023-05-09T06:34:24.284Z,14.20
2023-05-09T06:36:51.247Z,14.20
2023-05-09T06:39:18.026Z,14.20
2023-05-09T06:41:44.695Z,14.20
2023-05-09T06:44:11.437Z,14.30
2023-05-09T06:46:38.202Z,14.30
2023-05-09T06:49:06.118Z,14.30
2023-05-09T06:51:32.884Z,14.30
2023-05-09T06:53:59.586Z,14.30
2023-05-09T06:56:27.008Z,14.30
2023-05-09T06:58:53.736Z,14.30
2023-05-09T07:01:20.489Z,14.30
2023-05-09T07:03:47.636Z,14.40
2023-05-09T07:06:14.315Z,14.30
2023-05-09T07:08:43.413Z,14.40
2023-05-09T07:11:10.511Z,14.40
2023-05-09T07:13:37.382Z,14.50
2023-05-09T07:16:04.222Z,14.50
2023-05-09T07:18:31.046Z,14.60
2023-05-09T07:20:57.749Z,14.60
2023-05-09T07:23:25.383Z,14.70
2023-05-09T07:25:56.245Z,14.70
2023-05-09T07:28:22.965Z,14.80
2023-05-09T07:30:49.572Z,14.80
2023-05-09T07:33:16.320Z,14.80
2023-05-09T07:35:43.073Z,14.90
2023-05-09T07:38:11.050Z,15.00
2023-05-09T07:40:38.791Z,15.10
2023-05-09T07:43:05.672Z,15.10
2023-05-09T07:45:32.462Z,15.20
2023-05-09T07:47:59.655Z,15.30
2023-05-09T07:50:26.505Z,15.30
2023-05-09T07:52:53.591Z,15.40
2023-05-09T07:55:20.339Z,15.30
2023-05-09T07:57:47.789Z,15.30
2023-05-09T08:00:15.205Z,15.40
2023-05-09T08:02:42.018Z,15.40
2023-05-09T08:05:11.824Z,15.50
2023-05-09T08:07:38.698Z,15.60
2023-05-09T08:10:05.811Z,15.70
2023-05-09T08:12:32.789Z,15.70
2023-05-09T08:14:59.732Z,15.80
2023-05-09T08:17:27.563Z,15.80
2023-05-09T08:19:54.251Z,15.80
2023-05-09T08:22:21.056Z,15.80
2023-05-09T08:24:47.961Z,15.80
2023-05-09T08:27:15.682Z,15.90
2023-05-09T08:29:42.502Z,16.00
2023-05-09T08:32:09.226Z,16.10
2023-05-09T08:34:36.661Z,16.20
2023-05-09T08:37:04.047Z,16.20
2023-05-09T08:39:31.385Z,16.30
2023-05-09T08:41:58.513Z,16.30
2023-05-09T08:44:27.830Z,16.30
2023-05-09T08:47:01.306Z,16.40
2023-05-09T08:49:28.470Z,16.50
2023-05-09T08:51:55.890Z,16.60
2023-05-09T08:54:23.075Z,16.50
2023-05-09T08:56:50.059Z,16.50
2023-05-09T08:59:16.986Z,16.40
2023-05-09T09:01:43.815Z,16.30
2023-05-09T09:04:12.067Z,16.40
2023-05-09T09:06:39.237Z,16.50
2023-05-09T09:09:06.327Z,16.50
2023-05-09T09:11:33.623Z,16.50
2023-05-09T09:14:23.976Z,16.70
2023-05-09T09:16:50.769Z,16.90
2023-05-09T09:19:17.642Z,17.10
2023-05-09T09:21:45.154Z,17.20
2023-05-09T09:24:15.013Z,17.10
2023-05-09T09:26:48.522Z,17.00
2023-05-09T09:29:15.367Z,17.00
2023-05-09T09:31:44.176Z,16.90
2023-05-09T09:34:11.004Z,16.90
2023-05-09T09:36:37.752Z,16.90
2023-05-09T09:39:07.477Z,17.00
2023-05-09T09:41:34.840Z,17.10
2023-05-09T09:44:11.496Z,17.10
2023-05-09T09:46:51.922Z,17.10
2023-05-09T09:49:21.869Z,17.00
2023-05-09T09:51:52.588Z,17.10
2023-05-09T09:54:19.286Z,17.00
2023-05-09T09:56:50.122Z,16.90
2023-05-09T09:59:17.719Z,17.00
2023-05-09T10:02:08.277Z,17.00
2023-05-09T10:04:36.281Z,16.90
2023-05-09T10:07:05.081Z,16.90
2023-05-09T10:09:33.478Z,17.00
2023-05-09T10:12:04.238Z,17.20
2023-05-09T10:14:32.444Z,17.40
2023-05-09T10:17:00.887Z,17.40
2023-05-09T10:19:28.686Z,17.60
2023-05-09T10:21:59.226Z,17.80
2023-05-09T10:24:38.769Z,18.00
2023-05-09T10:27:14.962Z,18.10
2023-05-09T10:29:45.212Z,18.30
2023-05-09T10:32:12.980Z,18.30
2023-05-09T10:34:40.478Z,18.30
2023-05-09T10:37:08.146Z,18.30
2023-05-09T10:39:34.815Z,18.40
2023-05-09T10:42:01.637Z,18.50
2023-05-09T10:44:28.814Z,18.60
2023-05-09T10:46:55.643Z,18.70
2023-05-09T10:49:22.344Z,18.90
2023-05-09T10:51:52.620Z,18.80
2023-05-09T10:54:30.866Z,18.80
2023-05-09T10:56:58.028Z,18.60
2023-05-09T10:59:37.459Z,18.50
2023-05-09T11:02:04.641Z,18.60
2023-05-09T11:04:32.584Z,18.70
2023-05-09T11:06:59.820Z,18.90
2023-05-09T11:09:29.855Z,19.10
2023-05-09T11:12:09.925Z,19.50
2023-05-09T11:14:39.754Z,19.70
2023-05-09T11:17:07.241Z,20.00
2023-05-09T11:19:38.286Z,20.10
2023-05-09T11:22:11.277Z,20.30
2023-05-09T11:24:38.178Z,20.70
2023-05-09T11:27:20.831Z,20.60
2023-05-09T11:29:51.433Z,20.60
2023-05-09T11:32:18.277Z,20.70
2023-05-09T11:34:48.074Z,20.50
2023-05-09T11:37:16.329Z,20.20
2023-05-09T11:40:03.117Z,19.90
2023-05-09T11:42:29.772Z,19.50
2023-05-09T11:44:59.496Z,19.20
2023-05-09T11:47:26.483Z,19.00
2023-05-09T11:49:53.400Z,18.80
2023-05-09T11:52:20.929Z,18.70
2023-05-09T11:54:47.809Z,18.50
2023-05-09T11:57:17.555Z,18.50
2023-05-09T11:59:47.704Z,18.40
2023-05-09T12:02:14.449Z,18.50
2023-05-09T12:04:41.453Z,18.50
2023-05-09T12:07:08.271Z,18.50
2023-05-09T12:09:37.854Z,18.60
2023-05-09T12:12:11.594Z,18.60
2023-05-09T12:14:39.101Z,18.80
2023-05-09T12:17:09.464Z,18.90
2023-05-09T12:19:36.925Z,18.90
2023-05-09T12:22:05.639Z,18.90
2023-05-09T12:24:32.356Z,18.90
2023-05-09T12:26:59.522Z,19.00
2023-05-09T12:29:26.227Z,19.00
2023-05-09T12:31:56.564Z,19.00
2023-05-09T12:34:23.332Z,19.20
2023-05-09T12:36:53.865Z,19.40
2023-05-09T12:39:23.132Z,19.50
2023-05-09T12:42:00.485Z,19.70
2023-05-09T12:44:30.361Z,20.00
2023-05-09T12:46:58.245Z,20.30
2023-05-09T12:49:25.033Z,20.50
2023-05-09T12:51:51.949Z,20.70
2023-05-09T12:54:25.479Z,21.10
2023-05-09T12:56:52.725Z,21.40
2023-05-09T12:59:24.077Z,21.80
2023-05-09T13:01:58.098Z,21.70
2023-05-09T13:04:25.275Z,21.70
2023-05-09T13:06:53.497Z,21.60
2023-05-09T13:09:20.236Z,21.50
2023-05-09T13:11:47.808Z,21.90
2023-05-09T13:14:14.872Z,22.00
2023-05-09T13:16:41.702Z,21.90
2023-05-09T13:19:08.737Z,21.80
2023-05-09T13:21:35.589Z,21.70
2023-05-09T13:24:02.831Z,21.70
2023-05-09T13:26:31.800Z,21.50
2023-05-09T13:29:02.362Z,21.30
2023-05-09T13:31:29.926Z,21.20
2023-05-09T13:33:56.616Z,21.20
2023-05-09T13:36:23.552Z,21.20
2023-05-09T13:38:50.258Z,21.40
2023-05-09T13:41:20.882Z,21.50
2023-05-09T13:43:47.636Z,21.60
2023-05-09T13:46:14.390Z,21.60
2023-05-09T13:48:42.029Z,21.70
2023-05-09T13:51:08.996Z,22.50
2023-05-09T13:53:38.094Z,23.10
2023-05-09T13:56:07.263Z,22.90
2023-05-09T13:58:34.157Z,22.80
2023-05-09T14:01:00.943Z,22.90
2023-05-09T14:03:27.637Z,22.90
2023-05-09T14:05:54.606Z,22.70
2023-05-09T14:08:21.485Z,22.60
2023-05-09T14:10:48.223Z,22.20
2023-05-09T14:13:15.763Z,22.10
2023-05-09T14:15:42.744Z,22.10
2023-05-09T14:18:09.958Z,21.90
2023-05-09T14:20:37.660Z,21.70
2023-05-09T14:23:04.378Z,21.50
2023-05-09T14:25:31.036Z,21.30
2023-05-09T14:27:59.538Z,21.10
2023-05-09T14:30:26.635Z,20.90
2023-05-09T14:32:53.344Z,20.70
2023-05-09T14:35:20.223Z,20.50
2023-05-09T14:37:47.134Z,20.30
2023-05-09T14:40:14.782Z,20.20
2023-05-09T14:42:42.361Z,20.00
2023-05-09T14:45:11.924Z,19.90
2023-05-09T14:47:38.894Z,19.80
2023-05-09T14:50:05.960Z,19.80
2023-05-09T14:52:32.619Z,19.80
2023-05-09T14:54:59.928Z,19.60
2023-05-09T14:57:26.665Z,19.60
2023-05-09T14:59:53.475Z,19.50
2023-05-09T15:02:20.401Z,19.40
2023-05-09T15:04:46.993Z,19.30
2023-05-09T15:07:13.684Z,19.30
2023-05-09T15:09:40.374Z,19.20
2023-05-09T15:12:07.082Z,19.20
2023-05-09T15:14:34.189Z,19.20
2023-05-09T15:17:03.454Z,19.20
2023-05-09T15:19:31.762Z,19.10
2023-05-09T15:21:59.237Z,19.10
2023-05-09T15:24:26.413Z,19.00
2023-05-09T15:26:53.614Z,18.90
2023-05-09T15:29:21.676Z,18.80
2023-05-09T15:31:48.901Z,18.80
2023-05-09T15:34:15.648Z,18.70
2023-05-09T15:36:42.479Z,18.60
2023-05-09T15:39:09.196Z,18.40
2023-05-09T15:41:35.873Z,18.20
2023-05-09T15:44:02.643Z,18.10
2023-05-09T15:46:29.982Z,17.90
2023-05-09T15:48:57.047Z,17.70
2023-05-09T15:51:23.984Z,17.50
2023-05-09T15:53:51.193Z,17.30
2023-05-09T15:56:18.037Z,17.10
2023-05-09T15:58:45.087Z,16.80
2023-05-09T16:01:14.794Z,16.40
2023-05-09T16:03:42.051Z,16.10
2023-05-09T16:06:08.796Z,15.80
2023-05-09T16:08:35.424Z,15.50
2023-05-09T16:11:02.180Z,15.10
2023-05-09T16:13:29.930Z,15.00
2023-05-09T16:15:56.929Z,14.90
2023-05-09T16:18:23.699Z,15.00
2023-05-09T16:20:50.824Z,15.00
2023-05-09T16:23:17.537Z,15.10
2023-05-09T16:25:45.064Z,15.20
2023-05-09T16:28:11.864Z,15.20
2023-05-09T16:30:38.946Z,15.40
2023-05-09T16:33:05.650Z,15.50
2023-05-09T16:35:32.374Z,15.80
2023-05-09T16:37:59.313Z,16.10
2023-05-09T16:40:26.046Z,16.50
2023-05-09T16:42:54.046Z,17.00
2023-05-09T16:45:20.734Z,17.20
2023-05-09T16:47:47.599Z,17.50
2023-05-09T16:50:14.573Z,17.60
2023-05-09T16:52:41.559Z,17.80
2023-05-09T16:55:09.046Z,18.00
2023-05-09T16:57:36.027Z,18.30
2023-05-09T17:00:02.993Z,18.40
2023-05-09T17:02:30.006Z,18.40
2023-05-09T17:04:57.605Z,18.50
2023-05-09T17:07:24.452Z,18.60
2023-05-09T17:09:51.434Z,18.60
2023-05-09T17:12:18.558Z,18.70
2023-05-09T17:14:45.844Z,18.90
2023-05-09T17:17:13.214Z,19.20
2023-05-09T17:19:43.765Z,19.10
2023-05-09T17:22:10.639Z,19.00
2023-05-09T17:24:37.461Z,18.80
2023-05-09T17:27:04.666Z,18.60
2023-05-09T17:29:31.719Z,18.40
2023-05-09T17:32:00.648Z,18.20
2023-05-09T17:34:28.180Z,18.10
2023-05-09T17:36:55.020Z,17.90
2023-05-09T17:39:22.138Z,17.80
2023-05-09T17:41:48.808Z,17.60
2023-05-09T17:44:16.039Z,17.60
2023-05-09T17:46:43.192Z,17.50
2023-05-09T17:49:14.177Z,17.40
2023-05-09T17:51:41.382Z,17.30
2023-05-09T17:54:08.219Z,17.20
2023-05-09T17:56:35.178Z,17.00
2023-05-09T17:59:01.991Z,16.80
2023-05-09T18:01:28.917Z,16.60
2023-05-09T18:03:56.424Z,16.50
2023-05-09T18:06:23.287Z,16.50
2023-05-09T18:08:50.133Z,16.30
2023-05-09T18:11:16.916Z,16.10
2023-05-09T18:13:43.757Z,15.90
2023-05-09T18:16:10.530Z,15.60
2023-05-09T18:18:37.267Z,15.20
2023-05-09T18:21:05.361Z,14.90
2023-05-09T18:23:32.296Z,14.70
2023-05-09T18:25:59.138Z,14.60
2023-05-09T18:28:25.921Z,14.50
2023-05-09T18:30:54.570Z,14.40
2023-05-09T18:33:24.635Z,14.40
2023-05-09T18:35:52.886Z,14.30
2023-05-09T18:38:19.653Z,14.20
2023-05-09T18:40:46.594Z,14.10
2023-05-09T18:43:13.265Z,14.00
2023-05-09T18:45:44.825Z,13.90
2023-05-09T18:48:11.592Z,13.80
2023-05-09T18:50:38.298Z,13.80
2023-05-09T18:53:05.046Z,13.60
2023-05-09T18:55:32.014Z,13.50
2023-05-09T18:57:59.036Z,13.50
2023-05-09T19:00:25.765Z,13.50
2023-05-09T19:02:53.217Z,13.50
2023-05-09T19:05:21.176Z,13.50
2023-05-09T19:07:47.852Z,13.40
2023-05-09T19:10:18.436Z,13.40
2023-05-09T19:12:46.062Z,13.40
2023-05-09T19:15:12.919Z,13.40
2023-05-09T19:17:40.046Z,13.40
2023-05-09T19:20:07.099Z,13.40
2023-05-09T19:22:34.570Z,13.40
2023-05-09T19:25:01.735Z,13.40
2023-05-09T19:27:28.441Z,13.30
2023-05-09T19:29:55.112Z,13.10
2023-05-09T19:32:22.279Z,13.10
2023-05-09T19:34:49.581Z,13.10
2023-05-09T19:37:16.224Z,13.10
2023-05-09T19:39:42.952Z,13.10
2023-05-09T19:42:09.627Z,13.10
2023-05-09T19:44:36.317Z,13.20
2023-05-09T19:47:05.373Z,13.20
2023-05-09T19:49:32.792Z,13.30
2023-05-09T19:51:59.601Z,13.30
2023-05-09T19:54:27.068Z,13.30
2023-05-09T19:56:54.037Z,13.30
2023-05-09T19:59:21.114Z,13.30
2023-05-09T20:01:47.981Z,13.30
2023-05-09T20:04:14.898Z,13.30
2023-05-09T20:06:41.644Z,13.20
2023-05-09T20:09:08.501Z,13.20
2023-05-09T20:11:35.679Z,13.20
2023-05-09T20:14:02.441Z,13.10
2023-05-09T20:16:29.315Z,13.10
2023-05-09T20:18:56.026Z,13.10
2023-05-09T20:21:22.695Z,13.10
2023-05-09T20:23:49.378Z,13.10
2023-05-09T20:26:16.443Z,13.00
2023-05-09T20:28:43.411Z,13.00
2023-05-09T20:31:10.475Z,13.00
2023-05-09T20:33:37.315Z,13.00
2023-05-09T20:36:06.533Z,13.00
2023-05-09T20:38:35.544Z,13.00
2023-05-09T20:41:03.430Z,13.00
2023-05-09T20:43:30.726Z,13.00
2023-05-09T20:45:57.580Z,13.00
2023-05-09T20:48:24.330Z,13.00
2023-05-09T20:50:51.585Z,13.00
2023-05-09T20:53:18.556Z,13.00
2023-05-09T20:55:45.408Z,13.00
2023-05-09T20:58:14.735Z,12.90
2023-05-09T21:00:41.493Z,12.90
2023-05-09T21:03:10.215Z,12.90
2023-05-09T21:05:37.120Z,12.90
2023-05-09T21:08:04.267Z,12.90
2023-05-09T21:10:30.999Z,12.90
2023-05-09T21:12:57.891Z,12.80
2023-05-09T21:15:24.685Z,12.90
2023-05-09T21:17:51.357Z,12.80
2023-05-09T21:20:18.525Z,12.80
2023-05-09T21:22:46.042Z,12.80
2023-05-09T21:25:12.911Z,12.80
2023-05-09T21:27:39.901Z,12.80
2023-05-09T21:30:07.146Z,12.80
2023-05-09T21:32:33.957Z,12.80
2023-05-09T21:35:01.192Z,12.70
2023-05-09T21:37:28.240Z,12.80
2023-05-09T21:39:54.946Z,12.70
2023-05-09T21:42:23.983Z,12.70
2023-05-09T21:44:50.800Z,12.70
2023-05-09T21:47:17.525Z,12.70
2023-05-09T21:49:44.730Z,12.70
2023-05-09T21:52:11.355Z,12.60
2023-05-09T21:54:38.195Z,12.60
2023-05-09T21:57:05.240Z,12.60
2023-05-09T21:59:32.844Z,12.60
2023-05-09T22:01:59.617Z,12.60
2023-05-09T22:04:26.285Z,12.60
2023-05-09T22:06:53.025Z,12.60
2023-05-09T22:09:19.875Z,12.50
2023-05-09T22:11:46.585Z,12.50
2023-05-09T22:14:13.234Z,12.50
2023-05-09T22:16:39.985Z,12.40
2023-05-09T22:19:06.836Z,12.40
2023-05-09T22:21:33.569Z,12.30
2023-05-09T22:24:00.509Z,12.30
2023-05-09T22:26:27.201Z,12.20
2023-05-09T22:28:53.895Z,12.20
2023-05-09T22:31:20.773Z,12.20
2023-05-09T22:33:48.699Z,12.20
2023-05-09T22:36:15.462Z,12.20
2023-05-09T22:38:42.343Z,12.20
2023-05-09T22:41:09.275Z,12.20
2023-05-09T22:43:39.144Z,12.20
2023-05-09T22:46:06.580Z,12.20
2023-05-09T22:48:33.311Z,12.20
2023-05-09T22:51:00.232Z,12.20
2023-05-09T22:53:28.432Z,12.20
2023-05-09T22:55:55.420Z,12.20
2023-05-09T22:58:22.712Z,12.20
2023-05-09T23:00:49.751Z,12.10
2023-05-09T23:03:17.004Z,12.10
2023-05-09T23:05:43.881Z,12.10
2023-05-09T23:08:10.743Z,12.10
2023-05-09T23:10:37.371Z,12.10
2023-05-09T23:13:04.840Z,12.10
2023-05-09T23:15:31.637Z,12.00
2023-05-09T23:17:58.486Z,12.00
2023-05-09T23:20:25.568Z,12.00
2023-05-09T23:22:52.270Z,12.00
2023-05-09T23:25:19.045Z,12.00
2023-05-09T23:27:46.979Z,11.90
2023-05-09T23:30:15.167Z,11.90
2023-05-09T23:32:41.997Z,11.80
2023-05-09T23:35:10.049Z,11.80
2023-05-09T23:37:36.971Z,11.70
2023-05-09T23:40:04.143Z,11.70
2023-05-09T23:42:30.932Z,11.70
2023-05-09T23:44:57.790Z,11.60
2023-05-09T23:47:25.292Z,11.60
2023-05-09T23:49:52.258Z,11.60
2023-05-09T23:52:19.161Z,11.60
2023-05-09T23:54:46.585Z,11.50
2023-05-09T23:57:14.339Z,11.60
2023-05-09T23:59:42.700Z,11.50
